Time,TemperatureF,DewpointF,PressureIn,WindDirection,WindDirectionDegrees,WindSpeedMPH,WindSpeedGustMPH,Humidity,HourlyPrecipIn,Conditions,Clouds,dailyrainin,SoftwareType,DateUTC
2013-03-23 00:00:00,46.4,43.6,29.69,ENE,78,0.0,1.0,90,0.00,CLR,,0.00,WeatherDisplay:10.37,2013-03-22 23:00:00,
2013-03-23 00:05:00,46.4,43.6,29.69,East,90,0.0,1.0,90,0.00,CLR,,0.00,WeatherDisplay:10.37,2013-03-22 23:05:00,
2013-03-23 00:10:00,46.4,43.9,29.70,East,90,0.0,1.0,91,0.00,CLR,,0.00,WeatherDisplay:10.37,2013-03-22 23:10:00,
2013-03-23 00:15:00,46.4,43.9,29.70,West,270,0.0,0.0,91,0.00,CLR,,0.00,WeatherDisplay:10.37,2013-03-22 23:15:00,
2013-03-23 00:20:00,46.4,43.9,29.70,West,270,0.0,0.0,91,0.00,CLR,,0.00,WeatherDisplay:10.37,2013-03-22 23:20:00,
2013-03-23 00:25:00,46.6,44.1,29.70,WNW,294,0.0,0.0,91,0.00,CLR,,0.00,WeatherDisplay:10.37,2013-03-22 23:25:00,
2013-03-23 00:30:00,46.6,44.1,29.70,NNE,33,0.0,0.0,91,0.00,CLR,,0.00,WeatherDisplay:10.37,2013-03-22 23:30:00,
2013-03-23 00:35:00,46.6,44.1,29.70,NE,45,0.0,0.0,91,0.00,CLR,,0.00,WeatherDisplay:10.37,2013-03-22 23:35:00,
2013-03-23 00:40:00,47.1,44.6,29.70,NNE,32,0.0,0.0,91,0.00,CLR,,0.00,WeatherDisplay:10.37,2013-03-22 23:40:00,
2013-03-23 00:45:00,47.1,44.6,29.70,North,9,0.0,0.0,91,0.00,CLR,,0.00,WeatherDisplay:10.37,2013-03-22 23:45:00,
2013-03-23 00:50:00,47.1,44.6,29.70,North,0,0.0,0.0,91,0.00,CLR,,0.00,WeatherDisplay:10.37,2013-03-22 23:50:00,
2013-03-23 00:55:00,47.8,45.3,29.70,NNE,13,0.0,0.0,91,0.00,CLR,,0.00,WeatherDisplay:10.37,2013-03-22 23:55:00,
2013-03-23 01:00:00,47.8,45.3,29.70,NE,36,0.0,0.0,91,0.00,CLR,,0.00,WeatherDisplay:10.37,2013-03-23 00:00:00,
2013-03-23 01:05:00,47.8,45.3,29.70,NE,45,0.0,0.0,91,0.00,CLR,,0.00,WeatherDisplay:10.37,2013-03-23 00:05:00,
2013-03-23 01:10:00,48.4,45.9,29.70,NNE,29,1.0,3.0,91,0.00,CLR,,0.00,WeatherDisplay:10.37,2013-03-23 00:10:00,
2013-03-23 01:15:00,48.4,45.9,29.70,North,7,1.0,3.0,91,0.00,CLR,,0.00,WeatherDisplay:10.37,2013-03-23 00:15:00,
2013-03-23 01:20:00,48.4,45.9,29.70,North,0,1.0,3.0,91,0.00,CLR,,0.00,WeatherDisplay:10.37,2013-03-23 00:20:00,
2013-03-23 01:25:00,49.3,46.8,29.70,North,353,1.0,3.0,91,0.00,CLR,,0.00,WeatherDisplay:10.37,2013-03-23 00:25:00,
2013-03-23 01:30:00,49.3,46.8,29.70,NNW,331,1.0,2.0,91,0.00,CLR,,0.00,WeatherDisplay:10.37,2013-03-23 00:30:00,
2013-03-23 01:35:00,49.3,46.8,29.70,NW,315,1.0,2.0,91,0.00,CLR,,0.00,WeatherDisplay:10.37,2013-03-23 00:35:00,
2013-03-23 01:40:00,49.8,47.3,29.70,NNW,334,0.0,2.0,91,0.00,CLR,,0.00,WeatherDisplay:10.37,2013-03-23 00:40:00,
2013-03-23 01:45:00,49.8,47.3,29.70,North,355,0.0,2.0,91,0.00,CLR,,0.00,WeatherDisplay:10.37,2013-03-23 00:45:00,
2013-03-23 01:50:00,49.8,47.3,29.70,North,0,0.0,2.0,91,0.00,CLR,,0.00,WeatherDisplay:10.37,2013-03-23 00:50:00,
2013-03-23 01:55:00,50.7,48.2,29.70,NNE,12,1.0,3.0,91,0.00,CLR,,0.00,WeatherDisplay:10.37,2013-03-23 00:55:00,
2013-03-23 02:00:00,50.7,48.2,29.70,NE,49,1.0,3.0,91,0.00,CLR,,0.00,WeatherDisplay:10.37,2013-03-23 01:00:00,
2013-03-23 02:05:00,50.7,48.2,29.70,ENE,68,1.0,3.0,91,0.00,CLR,,0.00,WeatherDisplay:10.37,2013-03-23 01:05:00,
2013-03-23 02:10:00,51.6,48.8,29.70,ENE,61,1.0,3.0,90,0.00,CLR,,0.00,WeatherDisplay:10.37,2013-03-23 01:10:00,
2013-03-23 02:15:00,51.6,48.8,29.70,NE,50,1.0,3.0,90,0.00,CLR,,0.00,WeatherDisplay:10.37,2013-03-23 01:15:00,
2013-03-23 02:20:00,51.6,48.8,29.70,NE,45,1.0,3.0,90,0.00,CLR,,0.00,WeatherDisplay:10.37,2013-03-23 01:20:00,
2013-03-23 02:25:00,52.7,49.5,29.70,NNE,17,0.0,3.0,89,0.00,CLR,,0.00,WeatherDisplay:10.37,2013-03-23 01:25:00,
2013-03-23 02:30:00,52.7,49.5,29.70,NNW,345,0.0,1.0,89,0.00,CLR,,0.00,WeatherDisplay:10.37,2013-03-23 01:30:00,
2013-03-23 02:35:00,52.7,49.5,29.70,NNW,338,0.0,1.0,89,0.00,CLR,,0.00,WeatherDisplay:10.37,2013-03-23 01:35:00,
2013-03-23 02:40:00,54.1,50.7,29.70,North,350,1.0,2.0,88,0.00,CLR,,0.00,WeatherDisplay:10.37,2013-03-23 01:40:00,
2013-03-23 02:45:00,54.1,50.7,29.70,NNE,26,1.0,2.0,88,0.00,CLR,,0.00,WeatherDisplay:10.37,2013-03-23 01:45:00,
2013-03-23 02:50:00,54.1,50.7,29.70,NE,45,1.0,2.0,88,0.00,CLR,,0.00,WeatherDisplay:10.37,2013-03-23 01:50:00,
2013-03-23 02:55:00,55.2,51.4,29.70,North,2,0.0,2.0,87,0.00,CLR,,0.00,WeatherDisplay:10.37,2013-03-23 01:55:00,
2013-03-23 03:00:00,55.2,51.4,29.70,WNW,300,0.0,2.0,87,0.00,CLR,,0.00,WeatherDisplay:10.37,2013-03-23 02:00:00,
2013-03-23 03:05:00,55.2,51.4,29.70,WNW,292,0.0,2.0,87,0.00,CLR,,0.00,WeatherDisplay:10.37,2013-03-23 02:05:00,
2013-03-23 03:10:00,56.1,51.7,29.70,NNW,341,2.0,4.0,85,0.00,CLR,,0.00,WeatherDisplay:10.37,2013-03-23 02:10:00,
2013-03-23 03:15:00,56.1,51.7,29.70,NE,38,2.0,4.0,85,0.00,CLR,,0.00,WeatherDisplay:10.37,2013-03-23 02:15:00,
2013-03-23 03:20:00,56.1,51.7,29.70,NE,45,2.0,4.0,85,0.00,CLR,,0.00,WeatherDisplay:10.37,2013-03-23 02:20:00,
2013-03-23 03:25:00,57.2,52.4,29.71,NE,39,1.0,4.0,84,0.00,CLR,,0.00,WeatherDisplay:10.37,2013-03-23 02:25:00,
2013-03-23 03:30:00,57.2,52.4,29.71,NW,325,1.0,2.0,84,0.00,CLR,,0.00,WeatherDisplay:10.37,2013-03-23 02:30:00,
2013-03-23 03:35:00,57.2,52.4,29.71,West,270,1.0,2.0,84,0.00,CLR,,0.00,WeatherDisplay:10.37,2013-03-23 02:35:00,
2013-03-23 03:40:00,57.7,52.3,29.71,West,270,0.0,2.0,82,0.00,CLR,,0.00,WeatherDisplay:10.37,2013-03-23 02:40:00,
2013-03-23 03:45:00,57.7,52.3,29.71,East,90,0.0,2.0,82,0.00,CLR,,0.00,WeatherDisplay:10.37,2013-03-23 02:45:00,
2013-03-23 03:50:00,57.7,52.3,29.71,East,90,0.0,2.0,82,0.00,CLR,,0.00,WeatherDisplay:10.37,2013-03-23 02:50:00,
2013-03-23 03:55:00,59.2,53.4,29.71,East,81,1.0,4.0,81,0.00,CLR,,0.00,WeatherDisplay:10.37,2013-03-23 02:55:00,
2013-03-23 04:00:00,59.2,53.4,29.71,ENE,58,1.0,4.0,81,0.00,CLR,,0.00,WeatherDisplay:10.37,2013-03-23 03:00:00,
2013-03-23 04:05:00,59.2,53.4,29.71,NE,45,1.0,4.0,81,0.00,CLR,,0.00,WeatherDisplay:10.37,2013-03-23 03:05:00,
2013-03-23 04:10:00,59.5,53.0,29.71,NE,45,1.0,4.0,79,0.00,CLR,,0.00,WeatherDisplay:10.37,2013-03-23 03:10:00,
2013-03-23 04:15:00,59.5,53.0,29.71,NE,45,1.0,3.0,79,0.00,CLR,,0.00,WeatherDisplay:10.37,2013-03-23 03:15:00,
2013-03-23 04:20:00,59.5,53.0,29.71,NE,45,1.0,3.0,79,0.00,CLR,,0.00,WeatherDisplay:10.37,2013-03-23 03:20:00,
2013-03-23 04:25:00,59.9,52.0,29.70,ENE,58,1.0,3.0,75,0.00,CLR,,0.00,WeatherDisplay:10.37,2013-03-23 03:25:00,
2013-03-23 04:30:00,59.9,52.0,29.70,East,81,1.0,3.0,75,0.00,CLR,,0.00,WeatherDisplay:10.37,2013-03-23 03:30:00,
2013-03-23 04:35:00,59.9,52.0,29.70,East,90,1.0,3.0,75,0.00,CLR,,0.00,WeatherDisplay:10.37,2013-03-23 03:35:00,
2013-03-23 04:40:00,60.6,52.6,29.70,East,80,0.0,3.0,75,0.00,CLR,,0.00,WeatherDisplay:10.37,2013-03-23 03:40:00,
2013-03-23 04:45:00,60.6,52.6,29.70,NE,56,0.0,2.0,75,0.00,CLR,,0.00,WeatherDisplay:10.37,2013-03-23 03:45:00,
2013-03-23 04:50:00,60.6,52.6,29.70,NE,45,0.0,2.0,75,0.00,CLR,,0.00,WeatherDisplay:10.37,2013-03-23 03:50:00,
2013-03-23 04:55:00,61.9,52.8,29.69,ENE,59,1.0,2.0,72,0.00,CLR,,0.00,WeatherDisplay:10.37,2013-03-23 03:55:00,
2013-03-23 07:35:00,66.9,52.1,29.63,SW,216,5.0,8.0,59,0.00,CLR,,0.00,WeatherDisplay:10.37,2013-03-23 06:35:00,
2013-03-23 07:40:00,66.9,52.1,29.63,West,263,5.0,8.0,59,0.00,CLR,,0.00,WeatherDisplay:10.37,2013-03-23 06:40:00,
2013-03-23 07:45:00,66.9,52.1,29.63,West,270,5.0,8.0,59,0.00,CLR,,0.00,WeatherDisplay:10.37,2013-03-23 06:45:00,
2013-03-23 07:50:00,66.7,52.4,29.62,West,267,3.0,8.0,60,0.00,CLR,,0.00,WeatherDisplay:10.37,2013-03-23 06:50:00,
2013-03-23 07:55:00,66.7,52.4,29.62,SSW,199,3.0,7.0,60,0.00,CLR,,0.00,WeatherDisplay:10.37,2013-03-23 06:55:00,
2013-03-23 08:00:00,66.7,52.4,29.62,SE,135,3.0,7.0,60,0.00,CLR,,0.00,WeatherDisplay:10.37,2013-03-23 07:00:00,
2013-03-23 08:05:00,66.0,51.3,29.62,SE,135,2.0,7.0,59,0.00,CLR,,0.00,WeatherDisplay:10.37,2013-03-23 07:05:00,
2013-03-23 08:10:00,66.0,51.3,29.62,SE,135,2.0,5.0,59,0.00,CLR,,0.00,WeatherDisplay:10.37,2013-03-23 07:10:00,
2013-03-23 08:15:00,66.0,51.3,29.62,SE,135,2.0,5.0,59,0.00,CLR,,0.00,WeatherDisplay:10.37,2013-03-23 07:15:00,
2013-03-23 08:20:00,65.5,51.2,29.61,SE,139,2.0,5.0,60,0.00,CLR,,0.00,WeatherDisplay:10.37,2013-03-23 07:20:00,
2013-03-23 08:25:00,65.5,51.2,29.61,SSE,162,2.0,4.0,60,0.00,CLR,,0.00,WeatherDisplay:10.37,2013-03-23 07:25:00,
2013-03-23 08:30:00,65.5,51.2,29.61,South,180,2.0,4.0,60,0.00,CLR,,0.00,WeatherDisplay:10.37,2013-03-23 07:30:00,
2013-03-23 08:35:00,65.3,50.6,29.61,South,171,3.0,7.0,59,0.00,CLR,,0.00,WeatherDisplay:10.37,2013-03-23 07:35:00,
2013-03-23 08:40:00,65.3,50.6,29.61,ESE,115,3.0,7.0,59,0.00,CLR,,0.00,WeatherDisplay:10.37,2013-03-23 07:40:00,
2013-03-23 08:45:00,65.3,50.6,29.61,East,90,3.0,7.0,59,0.00,CLR,,0.00,WeatherDisplay:10.37,2013-03-23 07:45:00,
2013-03-23 08:50:00,64.9,50.3,29.60,East,93,2.0,7.0,59,0.00,CLR,,0.00,WeatherDisplay:10.37,2013-03-23 07:50:00,
2013-03-23 08:55:00,64.9,50.3,29.60,ESE,113,2.0,5.0,59,0.00,CLR,,0.00,WeatherDisplay:10.37,2013-03-23 07:55:00,
2013-03-23 09:00:00,64.9,50.3,29.60,SE,135,2.0,5.0,59,0.00,CLR,,0.00,WeatherDisplay:10.37,2013-03-23 08:00:00,
2013-03-23 09:05:00,65.3,51.1,29.61,SE,139,2.0,5.0,60,0.00,CLR,,0.00,WeatherDisplay:10.37,2013-03-23 08:05:00,
2013-03-23 09:10:00,65.3,51.1,29.61,SSE,162,2.0,4.0,60,0.00,CLR,,0.00,WeatherDisplay:10.37,2013-03-23 08:10:00,
2013-03-23 09:15:00,65.3,51.1,29.61,South,180,2.0,4.0,60,0.00,CLR,,0.00,WeatherDisplay:10.37,2013-03-23 08:15:00,
2013-03-23 09:20:00,65.3,50.1,29.60,South,176,1.0,4.0,58,0.00,CLR,,0.00,WeatherDisplay:10.37,2013-03-23 08:20:00,
2013-03-23 09:25:00,65.3,50.1,29.60,SE,134,1.0,4.0,58,0.00,CLR,,0.00,WeatherDisplay:10.37,2013-03-23 08:25:00,
2013-03-23 09:30:00,65.3,50.1,29.60,East,90,1.0,4.0,58,0.00,CLR,,0.00,WeatherDisplay:10.37,2013-03-23 08:30:00,
2013-03-23 09:35:00,64.9,49.8,29.60,ESE,103,3.0,6.0,58,0.00,CLR,,0.00,WeatherDisplay:10.37,2013-03-23 08:35:00,
2013-03-23 09:40:00,64.9,49.8,29.60,SSE,162,3.0,6.0,58,0.00,CLR,,0.00,WeatherDisplay:10.37,2013-03-23 08:40:00,
2013-03-23 09:45:00,64.9,49.8,29.60,South,180,3.0,6.0,58,0.00,CLR,,0.00,WeatherDisplay:10.37,2013-03-23 08:45:00,
2013-03-23 09:50:00,64.8,49.2,29.60,South,184,3.0,6.0,57,0.00,CLR,,0.00,WeatherDisplay:10.37,2013-03-23 08:50:00,
2013-03-23 09:55:00,64.8,49.2,29.60,SSW,207,3.0,5.0,57,0.00,CLR,,0.00,WeatherDisplay:10.37,2013-03-23 08:55:00,
2013-03-23 10:00:00,64.8,49.2,29.60,SW,225,3.0,5.0,57,0.00,CLR,,0.00,WeatherDisplay:10.37,2013-03-23 09:00:00,
2013-03-23 10:05:00,64.9,48.4,29.59,SW,220,3.0,6.0,55,0.00,CLR,,0.00,WeatherDisplay:10.37,2013-03-23 09:05:00,
2013-03-23 10:10:00,64.9,48.4,29.59,SSW,196,3.0,6.0,55,0.00,CLR,,0.00,WeatherDisplay:10.37,2013-03-23 09:10:00,
2013-03-23 10:15:00,64.9,48.4,29.59,South,180,3.0,6.0,55,0.00,CLR,,0.00,WeatherDisplay:10.37,2013-03-23 09:15:00,
2013-03-23 10:20:00,64.6,47.6,29.59,South,183,2.0,6.0,54,0.00,CLR,,0.00,WeatherDisplay:10.37,2013-03-23 09:20:00,
2013-03-23 10:25:00,64.6,47.6,29.59,WSW,239,2.0,5.0,54,0.00,CLR,,0.00,WeatherDisplay:10.37,2013-03-23 09:25:00,
2013-03-23 10:30:00,64.6,47.6,29.59,NW,315,2.0,5.0,54,0.00,CLR,,0.00,WeatherDisplay:10.37,2013-03-23 09:30:00,
2013-03-23 10:35:00,64.0,46.6,29.60,NW,315,2.0,5.0,53,0.00,CLR,,0.00,WeatherDisplay:10.37,2013-03-23 09:35:00,
2013-03-23 10:40:00,64.0,46.6,29.60,SE,135,2.0,4.0,53,0.00,CLR,,0.00,WeatherDisplay:10.37,2013-03-23 09:40:00,
2013-03-23 10:45:00,64.0,46.6,29.60,SE,135,2.0,4.0,53,0.00,CLR,,0.00,WeatherDisplay:10.37,2013-03-23 09:45:00,
2013-03-23 10:50:00,64.2,46.7,29.59,SE,131,1.0,4.0,53,0.00,CLR,,0.00,WeatherDisplay:10.37,2013-03-23 09:50:00,
2013-03-23 10:55:00,64.2,46.7,29.59,East,89,1.0,4.0,53,0.00,CLR,,0.00,WeatherDisplay:10.37,2013-03-23 09:55:00,
2013-03-23 10:57:00,61.9,52.8,29.69,SSE,158,2.3,2.3,72,0.00,CLR,,0.00,WeatherDisplay:10.37,2013-03-23 09:57:00,
2013-03-23 10:58:00,61.9,52.8,29.69,East,90,2.3,0.0,72,0.00,CLR,,0.00,WeatherDisplay:10.37,2013-03-23 09:58:00,
2013-03-23 11:00:00,64.2,46.7,29.59,NE,45,1.0,4.0,53,0.00,CLR,,0.00,WeatherDisplay:10.37,2013-03-23 10:00:00,
2013-03-23 11:03:00,62.1,52.9,29.69,NW,315,3.5,3.5,72,0.00,CLR,,0.00,WeatherDisplay:10.37,2013-03-23 10:03:00,
2013-03-23 11:05:00,63.5,46.6,29.59,NE,47,1.0,4.0,54,0.00,CLR,,0.00,WeatherDisplay:10.37,2013-03-23 10:05:00,
2013-03-23 11:08:00,62.4,52.9,29.69,NW,315,3.5,0.0,71,0.00,CLR,,0.00,WeatherDisplay:10.37,2013-03-23 10:08:00,
2013-03-23 11:10:00,63.5,46.6,29.59,East,85,1.0,3.0,54,0.00,CLR,,0.00,WeatherDisplay:10.37,2013-03-23 10:10:00,
2013-03-23 11:13:00,62.6,53.1,29.68,NNE,22,2.3,2.3,71,0.00,CLR,,0.00,WeatherDisplay:10.37,2013-03-23 10:13:00,
2013-03-23 11:15:00,63.5,46.6,29.59,South,180,1.0,3.0,54,0.00,CLR,,0.00,WeatherDisplay:10.37,2013-03-23 10:15:00,
2013-03-23 11:18:00,62.8,53.2,29.68,East,90,1.1,0.0,71,0.00,CLR,,0.00,WeatherDisplay:10.37,2013-03-23 10:18:00,
2013-03-23 11:20:00,63.1,46.7,29.58,South,186,1.0,3.0,55,0.00,CLR,,0.00,WeatherDisplay:10.37,2013-03-23 10:20:00,
2013-03-23 11:23:00,63.3,53.0,29.68,East,90,3.5,3.5,69,0.00,CLR,,0.00,WeatherDisplay:10.37,2013-03-23 10:23:00,
2013-03-23 11:25:00,63.1,46.7,29.58,SW,236,1.0,2.0,55,0.00,CLR,,0.00,WeatherDisplay:10.37,2013-03-23 10:25:00,
2013-03-23 11:28:00,63.3,51.3,29.68,East,90,4.5,4.5,65,0.00,CLR,,0.00,WeatherDisplay:10.37,2013-03-23 10:28:00,
2013-03-23 11:30:00,63.1,46.7,29.58,West,270,1.0,2.0,55,0.00,CLR,,0.00,WeatherDisplay:10.37,2013-03-23 10:30:00,
2013-03-23 11:33:00,63.1,51.6,29.67,East,90,2.3,2.3,66,0.00,CLR,,0.00,WeatherDisplay:10.37,2013-03-23 10:33:00,
2013-03-23 11:35:00,63.0,46.0,29.59,West,279,0.0,2.0,54,0.00,CLR,,0.00,WeatherDisplay:10.37,2013-03-23 10:35:00,
2013-03-23 11:38:00,63.5,51.5,29.68,SW,225,3.5,3.5,65,0.00,CLR,,0.00,WeatherDisplay:10.37,2013-03-23 10:38:00,
2013-03-23 11:40:00,63.0,46.0,29.59,NNE,24,0.0,1.0,54,0.00,CLR,,0.00,WeatherDisplay:10.37,2013-03-23 10:40:00,
2013-03-23 11:43:00,63.7,51.7,29.68,South,180,6.9,6.9,65,0.00,CLR,,0.00,WeatherDisplay:10.37,2013-03-23 10:43:00,
2013-03-23 11:45:00,63.0,46.0,29.59,NE,45,0.0,1.0,54,0.00,CLR,,0.00,WeatherDisplay:10.37,2013-03-23 10:45:00,
2013-03-23 11:48:00,64.0,52.0,29.67,West,270,4.6,4.6,65,0.00,CLR,,0.00,WeatherDisplay:10.37,2013-03-23 10:48:00,
2013-03-23 11:50:00,62.2,45.4,29.58,NE,49,0.0,1.0,54,0.00,CLR,,0.00,WeatherDisplay:10.37,2013-03-23 10:50:00,
2013-03-23 11:53:00,64.2,51.4,29.67,South,180,5.8,5.8,63,0.00,CLR,,0.00,WeatherDisplay:10.37,2013-03-23 10:53:00,
2013-03-23 11:55:00,62.2,45.4,29.58,ENE,72,0.0,1.0,54,0.00,CLR,,0.00,WeatherDisplay:10.37,2013-03-23 10:55:00,
2013-03-23 11:58:00,64.2,51.8,29.67,SSW,202,6.9,6.9,64,0.00,CLR,,0.00,WeatherDisplay:10.37,2013-03-23 10:58:00,
2013-03-23 12:00:00,62.2,45.4,29.58,East,90,0.0,1.0,54,0.00,CLR,,0.00,WeatherDisplay:10.37,2013-03-23 11:00:00,
2013-03-23 12:03:00,64.2,51.4,29.67,SE,135,4.6,4.6,63,0.00,CLR,,0.00,WeatherDisplay:10.37,2013-03-23 11:03:00,
2013-03-23 12:05:00,61.3,44.5,29.58,East,96,0.0,2.0,54,0.00,CLR,,0.00,WeatherDisplay:10.37,2013-03-23 11:05:00,
2013-03-23 12:08:00,64.2,51.4,29.67,West,270,5.8,5.8,63,0.00,CLR,,0.00,WeatherDisplay:10.37,2013-03-23 11:08:00,
2013-03-23 12:10:00,61.3,44.5,29.58,SE,146,0.0,2.0,54,0.00,CLR,,0.00,WeatherDisplay:10.37,2013-03-23 11:10:00,
2013-03-23 12:13:00,64.2,50.9,29.67,SW,225,6.9,6.9,62,0.00,CLR,,0.00,WeatherDisplay:10.37,2013-03-23 11:13:00,
2013-03-23 12:15:00,61.3,44.5,29.58,South,180,0.0,2.0,54,0.00,CLR,,0.00,WeatherDisplay:10.37,2013-03-23 11:15:00,
2013-03-23 12:18:00,64.2,50.9,29.66,West,270,5.8,5.8,62,0.00,CLR,,0.00,WeatherDisplay:10.37,2013-03-23 11:18:00,
2013-03-23 12:20:00,60.4,44.7,29.58,South,174,0.0,2.0,56,0.00,CLR,,0.00,WeatherDisplay:10.37,2013-03-23 11:20:00,
2013-03-23 12:23:00,64.4,51.1,29.67,West,270,3.5,3.5,62,0.00,CLR,,0.00,WeatherDisplay:10.37,2013-03-23 11:23:00,
2013-03-23 12:25:00,60.4,44.7,29.58,SE,124,0.0,1.0,56,0.00,CLR,,0.00,WeatherDisplay:10.37,2013-03-23 11:25:00,
2013-03-23 12:28:00,64.6,50.8,29.67,East,90,3.5,3.5,61,0.00,CLR,,0.00,WeatherDisplay:10.37,2013-03-23 11:28:00,
2013-03-23 12:30:00,60.4,44.7,29.58,East,90,0.0,1.0,56,0.00,CLR,,0.00,WeatherDisplay:10.37,2013-03-23 11:30:00,
2013-03-23 12:33:00,64.4,50.2,29.66,East,90,3.5,3.5,60,0.00,CLR,,0.00,WeatherDisplay:10.37,2013-03-23 11:33:00,
2013-03-23 12:35:00,59.7,44.5,29.58,East,90,0.0,1.0,57,0.00,CLR,,0.00,WeatherDisplay:10.37,2013-03-23 11:35:00,
2013-03-23 12:38:00,64.4,49.8,29.66,East,90,5.8,5.8,59,0.00,CLR,,0.00,WeatherDisplay:10.37,2013-03-23 11:38:00,
2013-03-23 12:40:00,59.7,44.5,29.58,East,90,0.0,0.0,57,0.00,CLR,,0.00,WeatherDisplay:10.37,2013-03-23 11:40:00,
2013-03-23 12:43:00,64.4,50.2,29.66,North,0,5.8,5.8,60,0.00,CLR,,0.00,WeatherDisplay:10.37,2013-03-23 11:43:00,
2013-03-23 12:45:00,59.7,44.5,29.58,East,90,0.0,0.0,57,0.00,CLR,,0.00,WeatherDisplay:10.37,2013-03-23 11:45:00,
2013-03-23 12:48:00,64.8,50.5,29.66,NW,315,4.6,4.6,60,0.00,CLR,,0.00,WeatherDisplay:10.37,2013-03-23 11:48:00,
2013-03-23 12:50:00,59.4,44.6,29.58,East,90,0.0,0.0,58,0.00,CLR,,0.00,WeatherDisplay:10.37,2013-03-23 11:50:00,
2013-03-23 12:53:00,65.1,50.9,29.65,NW,315,6.9,6.9,60,0.00,CLR,,0.00,WeatherDisplay:10.37,2013-03-23 11:53:00,
2013-03-23 12:55:00,59.4,44.6,29.58,East,90,0.0,0.0,58,0.00,CLR,,0.00,WeatherDisplay:10.37,2013-03-23 11:55:00,
2013-03-23 12:58:00,65.3,50.6,29.65,SE,135,5.8,5.8,59,0.00,CLR,,0.00,WeatherDisplay:10.37,2013-03-23 11:58:00,
2013-03-23 13:00:00,59.4,44.6,29.58,East,90,0.0,0.0,58,0.00,CLR,,0.00,WeatherDisplay:10.37,2013-03-23 12:00:00,
2013-03-23 13:03:00,65.5,51.2,29.65,East,90,5.8,5.8,60,0.00,CLR,,0.00,WeatherDisplay:10.37,2013-03-23 12:03:00,
2013-03-23 13:05:00,59.0,45.1,29.58,East,90,0.0,0.0,60,0.00,CLR,,0.00,WeatherDisplay:10.37,2013-03-23 12:05:00,
2013-03-23 13:08:00,66.0,51.7,29.65,West,270,4.6,4.6,60,0.00,CLR,,0.00,WeatherDisplay:10.37,2013-03-23 12:08:00,
2013-03-23 13:10:00,59.0,45.1,29.58,East,90,0.0,0.0,60,0.00,CLR,,0.00,WeatherDisplay:10.37,2013-03-23 12:10:00,
2013-03-23 13:14:00,66.6,52.2,29.65,NE,45,4.6,4.6,60,0.00,CLR,,0.00,WeatherDisplay:10.37,2013-03-23 12:14:00,
2013-03-23 13:15:00,59.0,45.1,29.58,East,90,0.0,0.0,60,0.00,CLR,,0.00,WeatherDisplay:10.37,2013-03-23 12:15:00,
2013-03-23 13:19:00,66.6,51.8,29.65,South,180,5.8,5.8,59,0.00,CLR,,0.00,WeatherDisplay:10.37,2013-03-23 12:19:00,
2013-03-23 13:20:00,58.1,44.7,29.58,East,96,0.0,0.0,61,0.00,CLR,,0.00,WeatherDisplay:10.37,2013-03-23 12:20:00,
2013-03-23 13:24:00,66.6,51.8,29.64,South,180,5.8,5.8,59,0.00,CLR,,0.00,WeatherDisplay:10.37,2013-03-23 12:24:00,
2013-03-23 13:25:00,58.1,44.7,29.58,SE,146,0.0,0.0,61,0.00,CLR,,0.00,WeatherDisplay:10.37,2013-03-23 12:25:00,
2013-03-23 13:29:00,66.7,52.4,29.64,WSW,248,5.8,5.8,60,0.00,CLR,,0.00,WeatherDisplay:10.37,2013-03-23 12:29:00,
2013-03-23 13:30:00,58.1,44.7,29.58,South,180,0.0,0.0,61,0.00,CLR,,0.00,WeatherDisplay:10.37,2013-03-23 12:30:00,
2013-03-23 13:34:00,66.6,52.2,29.64,SW,225,5.8,5.8,60,0.00,CLR,,0.00,WeatherDisplay:10.37,2013-03-23 12:34:00,
2013-03-23 13:35:00,57.7,44.8,29.59,South,186,0.0,0.0,62,0.00,CLR,,0.00,WeatherDisplay:10.37,2013-03-23 12:35:00,
2013-03-23 13:40:00,57.7,44.8,29.59,SW,236,0.0,0.0,62,0.00,CLR,,0.00,WeatherDisplay:10.37,2013-03-23 12:40:00,
2013-03-23 13:45:00,57.7,44.8,29.59,West,270,0.0,0.0,62,0.00,CLR,,0.00,WeatherDisplay:10.37,2013-03-23 12:45:00,
2013-03-23 13:50:00,57.9,46.2,29.59,West,270,0.0,0.0,65,0.00,CLR,,0.00,WeatherDisplay:10.37,2013-03-23 12:50:00,
2013-03-23 13:55:00,57.9,46.2,29.59,West,270,0.0,0.0,65,0.00,CLR,,0.00,WeatherDisplay:10.37,2013-03-23 12:55:00,
2013-03-23 14:00:00,57.9,46.2,29.59,West,270,0.0,0.0,65,0.00,CLR,,0.00,WeatherDisplay:10.37,2013-03-23 13:00:00,
2013-03-23 14:05:00,57.7,46.9,29.59,West,275,0.0,0.0,67,0.00,CLR,,0.00,WeatherDisplay:10.37,2013-03-23 13:05:00,
2013-03-23 14:10:00,57.7,46.9,29.59,North,3,0.0,0.0,67,0.00,CLR,,0.00,WeatherDisplay:10.37,2013-03-23 13:10:00,
2013-03-23 14:15:00,57.7,46.9,29.59,NE,45,0.0,0.0,67,0.00,CLR,,0.00,WeatherDisplay:10.37,2013-03-23 13:15:00,
2013-03-23 14:20:00,57.4,47.3,29.59,NE,41,0.0,2.0,69,0.00,CLR,,0.00,WeatherDisplay:10.37,2013-03-23 13:20:00,
2013-03-23 14:25:00,57.4,47.3,29.59,NNE,18,0.0,2.0,69,0.00,CLR,,0.00,WeatherDisplay:10.37,2013-03-23 13:25:00,
2013-03-23 14:30:00,57.4,47.3,29.59,North,0,0.0,2.0,69,0.00,CLR,,0.00,WeatherDisplay:10.37,2013-03-23 13:30:00,
2013-03-23 14:35:00,56.8,47.2,29.59,North,3,1.0,2.0,70,0.00,CLR,,0.00,WeatherDisplay:10.37,2013-03-23 13:35:00,
2013-03-23 14:40:00,56.8,47.2,29.59,NNE,21,1.0,2.0,70,0.00,CLR,,0.00,WeatherDisplay:10.37,2013-03-23 13:40:00,
2013-03-23 14:45:00,56.8,47.2,29.59,NE,45,1.0,2.0,70,0.00,CLR,,0.00,WeatherDisplay:10.37,2013-03-23 13:45:00,
2013-03-23 14:50:00,56.1,46.8,29.59,NE,45,1.0,2.0,71,0.00,CLR,,0.00,WeatherDisplay:10.37,2013-03-23 13:50:00,
2013-03-23 14:55:00,56.1,46.8,29.59,NE,45,1.0,2.0,71,0.00,CLR,,0.00,WeatherDisplay:10.37,2013-03-23 13:55:00,
2013-03-23 15:00:00,56.1,46.8,29.59,NE,45,1.0,2.0,71,0.00,CLR,,0.00,WeatherDisplay:10.37,2013-03-23 14:00:00,
2013-03-23 15:05:00,55.4,46.9,29.58,NE,34,0.0,2.0,73,0.00,CLR,,0.00,WeatherDisplay:10.37,2013-03-23 14:05:00,
2013-03-23 15:10:00,55.4,46.9,29.58,NNW,336,0.0,2.0,73,0.00,CLR,,0.00,WeatherDisplay:10.37,2013-03-23 14:10:00,
2013-03-23 15:15:00,55.4,46.9,29.58,NW,315,0.0,2.0,73,0.00,CLR,,0.00,WeatherDisplay:10.37,2013-03-23 14:15:00,
2013-03-23 15:20:00,54.9,46.7,29.57,NW,321,0.0,2.0,74,0.00,CLR,,0.00,WeatherDisplay:10.37,2013-03-23 14:20:00,
2013-03-23 15:25:00,54.9,46.7,29.57,North,11,0.0,2.0,74,0.00,CLR,,0.00,WeatherDisplay:10.37,2013-03-23 14:25:00,
2013-03-23 15:30:00,54.9,46.7,29.57,NE,45,0.0,2.0,74,0.00,CLR,,0.00,WeatherDisplay:10.37,2013-03-23 14:30:00,
2013-03-23 15:35:00,54.5,46.7,29.57,NE,41,0.0,2.0,75,0.00,CLR,,0.00,WeatherDisplay:10.37,2013-03-23 14:35:00,
2013-03-23 15:40:00,54.5,46.7,29.57,NNE,18,0.0,0.0,75,0.00,CLR,,0.00,WeatherDisplay:10.37,2013-03-23 14:40:00,
2013-03-23 15:45:00,54.5,46.7,29.57,North,0,0.0,0.0,75,0.00,CLR,,0.00,WeatherDisplay:10.37,2013-03-23 14:45:00,
2013-03-23 15:50:00,54.3,46.9,29.57,North,356,0.0,2.0,76,0.00,CLR,,0.00,WeatherDisplay:10.37,2013-03-23 14:50:00,
2013-03-23 15:55:00,54.3,46.9,29.57,NNW,333,0.0,2.0,76,0.00,CLR,,0.00,WeatherDisplay:10.37,2013-03-23 14:55:00,
2013-03-23 16:00:00,54.3,46.9,29.57,NW,315,0.0,2.0,76,0.00,CLR,,0.00,WeatherDisplay:10.37,2013-03-23 15:00:00,
2013-03-23 16:05:00,54.3,46.9,29.57,NW,315,0.0,2.0,76,0.00,CLR,,0.00,WeatherDisplay:10.37,2013-03-23 15:05:00,
2013-03-23 16:10:00,54.3,46.9,29.57,NW,315,0.0,1.0,76,0.00,CLR,,0.00,WeatherDisplay:10.37,2013-03-23 15:10:00,
2013-03-23 16:15:00,54.3,46.9,29.57,NW,315,0.0,1.0,76,0.00,CLR,,0.00,WeatherDisplay:10.37,2013-03-23 15:15:00,
2013-03-23 16:20:00,54.5,47.4,29.57,NW,311,0.0,2.0,77,0.00,CLR,,0.00,WeatherDisplay:10.37,2013-03-23 15:20:00,
2013-03-23 16:25:00,54.5,47.4,29.57,WNW,288,0.0,2.0,77,0.00,CLR,,0.00,WeatherDisplay:10.37,2013-03-23 15:25:00,
2013-03-23 16:30:00,54.5,47.4,29.57,West,270,0.0,2.0,77,0.00,CLR,,0.00,WeatherDisplay:10.37,2013-03-23 15:30:00,
2013-03-23 16:35:00,54.3,47.3,29.57,West,275,0.0,2.0,77,0.00,CLR,,0.00,WeatherDisplay:10.37,2013-03-23 15:35:00,
2013-03-23 16:40:00,54.3,47.3,29.57,North,3,0.0,0.0,77,0.00,CLR,,0.00,WeatherDisplay:10.37,2013-03-23 15:40:00,
2013-03-23 16:45:00,54.3,47.3,29.57,NE,45,0.0,0.0,77,0.00,CLR,,0.00,WeatherDisplay:10.37,2013-03-23 15:45:00,
2013-03-23 16:50:00,54.3,47.6,29.57,NE,40,0.0,2.0,78,0.00,CLR,,0.00,WeatherDisplay:10.37,2013-03-23 15:50:00,
2013-03-23 16:55:00,54.3,47.6,29.57,NW,312,0.0,2.0,78,0.00,CLR,,0.00,WeatherDisplay:10.37,2013-03-23 15:55:00,
2013-03-23 17:00:00,54.3,47.6,29.57,West,270,0.0,2.0,78,0.00,CLR,,0.00,WeatherDisplay:10.37,2013-03-23 16:00:00,
2013-03-23 17:05:00,54.1,47.4,29.58,West,276,0.0,2.0,78,0.00,CLR,,0.00,WeatherDisplay:10.37,2013-03-23 16:05:00,
2013-03-23 17:10:00,54.1,47.4,29.58,NW,326,0.0,0.0,78,0.00,CLR,,0.00,WeatherDisplay:10.37,2013-03-23 16:10:00,
2013-03-23 17:15:00,54.1,47.4,29.58,North,0,0.0,0.0,78,0.00,CLR,,0.00,WeatherDisplay:10.37,2013-03-23 16:15:00,
2013-03-23 17:20:00,54.1,47.8,29.57,North,354,0.0,1.0,79,0.00,CLR,,0.00,WeatherDisplay:10.37,2013-03-23 16:20:00,
2013-03-23 17:25:00,54.1,47.8,29.57,NW,304,0.0,1.0,79,0.00,CLR,,0.00,WeatherDisplay:10.37,2013-03-23 16:25:00,
2013-03-23 17:30:00,54.1,47.8,29.57,West,270,0.0,1.0,79,0.00,CLR,,0.00,WeatherDisplay:10.37,2013-03-23 16:30:00,
2013-03-23 17:35:00,54.1,47.8,29.56,West,266,0.0,1.0,79,0.00,CLR,,0.00,WeatherDisplay:10.37,2013-03-23 16:35:00,
2013-03-23 17:40:00,54.1,47.8,29.56,WSW,243,0.0,0.0,79,0.00,CLR,,0.00,WeatherDisplay:10.37,2013-03-23 16:40:00,
2013-03-23 17:45:00,54.1,47.8,29.56,SW,225,0.0,0.0,79,0.00,CLR,,0.00,WeatherDisplay:10.37,2013-03-23 16:45:00,
2013-03-23 17:50:00,54.1,47.8,29.56,SW,230,0.0,1.0,79,0.00,CLR,,0.00,WeatherDisplay:10.37,2013-03-23 16:50:00,
2013-03-23 17:55:00,54.1,47.8,29.56,NW,318,0.0,1.0,79,0.00,CLR,,0.00,WeatherDisplay:10.37,2013-03-23 16:55:00,
2013-03-23 18:00:00,54.1,47.8,29.56,North,0,0.0,1.0,79,0.00,CLR,,0.00,WeatherDisplay:10.37,2013-03-23 17:00:00,
2013-03-23 18:05:00,54.1,47.8,29.56,North,356,0.0,1.0,79,0.00,CLR,,0.00,WeatherDisplay:10.37,2013-03-23 17:05:00,
2013-03-23 18:10:00,54.1,47.8,29.56,NNW,333,0.0,1.0,79,0.00,CLR,,0.00,WeatherDisplay:10.37,2013-03-23 17:10:00,
2013-03-23 18:15:00,54.1,47.8,29.56,NW,315,0.0,1.0,79,0.00,CLR,,0.00,WeatherDisplay:10.37,2013-03-23 17:15:00,
2013-03-23 18:20:00,54.1,47.8,29.55,NW,321,0.0,1.0,79,0.00,CLR,,0.00,WeatherDisplay:10.37,2013-03-23 17:20:00,
2013-03-23 18:25:00,54.1,47.8,29.55,North,11,0.0,0.0,79,0.00,CLR,,0.00,WeatherDisplay:10.37,2013-03-23 17:25:00,
2013-03-23 18:30:00,54.1,47.8,29.55,NE,45,0.0,0.0,79,0.00,CLR,,0.00,WeatherDisplay:10.37,2013-03-23 17:30:00,
2013-03-23 18:35:00,53.8,47.4,29.55,NE,43,0.0,0.0,79,0.00,CLR,,0.00,WeatherDisplay:10.37,2013-03-23 17:35:00,
2013-03-23 18:40:00,53.8,47.4,29.55,NNE,31,0.0,0.0,79,0.00,CLR,,0.00,WeatherDisplay:10.37,2013-03-23 17:40:00,
2013-03-23 18:45:00,53.8,47.4,29.55,NNE,22,0.0,0.0,79,0.00,CLR,,0.00,WeatherDisplay:10.37,2013-03-23 17:45:00,
2013-03-23 18:50:00,53.6,47.2,29.54,NNE,20,0.0,2.0,79,0.00,CLR,,0.00,WeatherDisplay:10.37,2013-03-23 17:50:00,
2013-03-23 18:55:00,53.6,47.2,29.54,North,9,0.0,2.0,79,0.00,CLR,,0.00,WeatherDisplay:10.37,2013-03-23 17:55:00,
2013-03-23 19:00:00,53.6,47.2,29.54,North,0,0.0,2.0,79,0.00,CLR,,0.00,WeatherDisplay:10.37,2013-03-23 18:00:00,
2013-03-23 19:05:00,53.6,47.6,29.54,North,356,0.0,2.0,80,0.00,CLR,,0.00,WeatherDisplay:10.37,2013-03-23 18:05:00,
2013-03-23 19:10:00,53.6,47.6,29.54,NNW,333,0.0,0.0,80,0.00,CLR,,0.00,WeatherDisplay:10.37,2013-03-23 18:10:00,
2013-03-23 19:15:00,53.6,47.6,29.54,NW,315,0.0,0.0,80,0.00,CLR,,0.00,WeatherDisplay:10.37,2013-03-23 18:15:00,
2013-03-23 19:20:00,53.4,47.4,29.54,NW,311,0.0,2.0,80,0.00,CLR,,0.00,WeatherDisplay:10.37,2013-03-23 18:20:00,
2013-03-23 19:25:00,53.4,47.4,29.54,WNW,288,0.0,2.0,80,0.00,CLR,,0.00,WeatherDisplay:10.37,2013-03-23 18:25:00,
2013-03-23 19:30:00,53.4,47.4,29.54,West,270,0.0,2.0,80,0.00,CLR,,0.00,WeatherDisplay:10.37,2013-03-23 18:30:00,
2013-03-23 19:35:00,53.4,47.4,29.53,West,266,0.0,2.0,80,0.00,CLR,,0.00,WeatherDisplay:10.37,2013-03-23 18:35:00,
2013-03-23 19:40:00,53.4,47.4,29.53,WSW,243,0.0,0.0,80,0.00,CLR,,0.00,WeatherDisplay:10.37,2013-03-23 18:40:00,
2013-03-23 19:45:00,53.4,47.4,29.53,SW,225,0.0,0.0,80,0.00,CLR,,0.00,WeatherDisplay:10.37,2013-03-23 18:45:00,
2013-03-23 19:50:00,53.2,47.2,29.53,SW,230,0.0,1.0,80,0.00,CLR,,0.00,WeatherDisplay:10.37,2013-03-23 18:50:00,
2013-03-23 19:55:00,53.2,47.2,29.53,NW,318,0.0,1.0,80,0.00,CLR,,0.00,WeatherDisplay:10.37,2013-03-23 18:55:00,
2013-03-23 20:00:00,53.2,47.2,29.53,North,0,0.0,1.0,80,0.00,CLR,,0.00,WeatherDisplay:10.37,2013-03-23 19:00:00,
2013-03-23 20:05:00,52.9,46.9,29.52,North,0,1.0,2.0,80,0.00,CLR,,0.00,WeatherDisplay:10.37,2013-03-23 19:05:00,
2013-03-23 20:10:00,52.9,46.9,29.52,North,0,1.0,2.0,80,0.00,CLR,,0.00,WeatherDisplay:10.37,2013-03-23 19:10:00,
2013-03-23 20:15:00,52.9,46.9,29.52,North,0,1.0,2.0,80,0.00,CLR,,0.00,WeatherDisplay:10.37,2013-03-23 19:15:00,
2013-03-23 20:20:00,52.9,47.2,29.52,North,354,1.0,2.0,81,0.00,CLR,,0.00,WeatherDisplay:10.37,2013-03-23 19:20:00,
2013-03-23 20:25:00,52.9,47.2,29.52,NW,318,1.0,2.0,81,0.00,CLR,,0.00,WeatherDisplay:10.37,2013-03-23 19:25:00,
2013-03-23 20:30:00,52.9,47.2,29.52,WNW,292,1.0,2.0,81,0.00,CLR,,0.00,WeatherDisplay:10.37,2013-03-23 19:30:00,
2013-03-23 20:35:00,52.9,47.2,29.51,WNW,301,0.0,2.0,81,0.00,CLR,,0.00,WeatherDisplay:10.37,2013-03-23 19:35:00,
2013-03-23 20:40:00,52.9,47.2,29.51,NNW,343,0.0,2.0,81,0.00,CLR,,0.00,WeatherDisplay:10.37,2013-03-23 19:40:00,
2013-03-23 20:45:00,52.9,47.2,29.51,North,0,0.0,2.0,81,0.00,CLR,,0.00,WeatherDisplay:10.37,2013-03-23 19:45:00,
2013-03-23 20:50:00,52.9,47.2,29.50,North,354,0.0,2.0,81,0.00,CLR,,0.00,WeatherDisplay:10.37,2013-03-23 19:50:00,
2013-03-23 20:55:00,52.9,47.2,29.50,NW,304,0.0,2.0,81,0.00,CLR,,0.00,WeatherDisplay:10.37,2013-03-23 19:55:00,
2013-03-23 21:00:00,52.9,47.2,29.50,West,270,0.0,2.0,81,0.00,CLR,,0.00,WeatherDisplay:10.37,2013-03-23 20:00:00,
2013-03-23 21:05:00,52.7,47.0,29.50,West,276,0.0,2.0,81,0.00,CLR,,0.00,WeatherDisplay:10.37,2013-03-23 20:05:00,
2013-03-23 21:10:00,52.7,47.0,29.50,NW,326,0.0,1.0,81,0.00,CLR,,0.00,WeatherDisplay:10.37,2013-03-23 20:10:00,
2013-03-23 21:15:00,52.7,47.0,29.50,North,0,0.0,1.0,81,0.00,CLR,,0.00,WeatherDisplay:10.37,2013-03-23 20:15:00,
2013-03-23 21:20:00,52.5,46.5,29.49,North,356,1.0,2.0,80,0.00,CLR,,0.00,WeatherDisplay:10.37,2013-03-23 20:20:00,
2013-03-23 21:25:00,52.5,46.5,29.49,NW,319,1.0,2.0,80,0.00,CLR,,0.00,WeatherDisplay:10.37,2013-03-23 20:25:00,
2013-03-23 21:30:00,52.5,46.5,29.49,West,270,1.0,2.0,80,0.00,CLR,,0.00,WeatherDisplay:10.37,2013-03-23 20:30:00,
2013-03-23 21:35:00,52.2,46.2,29.49,West,279,0.0,2.0,80,0.00,CLR,,0.00,WeatherDisplay:10.37,2013-03-23 20:35:00,
2013-03-23 21:40:00,52.2,46.2,29.49,NNE,24,0.0,0.0,80,0.00,CLR,,0.00,WeatherDisplay:10.37,2013-03-23 20:40:00,
2013-03-23 21:45:00,52.2,46.2,29.49,NE,45,0.0,0.0,80,0.00,CLR,,0.00,WeatherDisplay:10.37,2013-03-23 20:45:00,
2013-03-23 21:50:00,52.0,46.0,29.48,NE,39,0.0,0.0,80,0.00,CLR,,0.00,WeatherDisplay:10.37,2013-03-23 20:50:00,
2013-03-23 21:55:00,52.0,46.0,29.48,North,349,0.0,0.0,80,0.00,CLR,,0.00,WeatherDisplay:10.37,2013-03-23 20:55:00,
2013-03-23 22:00:00,52.0,46.0,29.48,NW,315,0.0,0.0,80,0.00,CLR,,0.00,WeatherDisplay:10.37,2013-03-23 21:00:00,
2013-03-23 22:05:00,51.6,46.0,29.48,NW,321,0.0,1.0,81,0.00,CLR,,0.00,WeatherDisplay:10.37,2013-03-23 21:05:00,
2013-03-23 22:10:00,51.6,46.0,29.48,North,11,0.0,1.0,81,0.00,CLR,,0.00,WeatherDisplay:10.37,2013-03-23 21:10:00,
2013-03-23 22:15:00,51.6,46.0,29.48,NE,45,0.0,1.0,81,0.00,CLR,,0.00,WeatherDisplay:10.37,2013-03-23 21:15:00,
2013-03-23 22:20:00,51.4,45.8,29.47,NE,45,0.0,2.0,81,0.00,CLR,,0.00,WeatherDisplay:10.37,2013-03-23 21:20:00,
2013-03-23 22:25:00,51.4,45.8,29.47,NE,45,0.0,2.0,81,0.00,CLR,,0.00,WeatherDisplay:10.37,2013-03-23 21:25:00,
2013-03-23 22:30:00,51.4,45.8,29.47,NE,45,0.0,2.0,81,0.00,CLR,,0.00,WeatherDisplay:10.37,2013-03-23 21:30:00,
2013-03-23 22:35:00,50.9,45.3,29.47,NE,40,0.0,2.0,81,0.00,CLR,,0.00,WeatherDisplay:10.37,2013-03-23 21:35:00,
2013-03-23 22:40:00,50.9,45.3,29.47,NW,312,0.0,1.0,81,0.00,CLR,,0.00,WeatherDisplay:10.37,2013-03-23 21:40:00,
2013-03-23 22:45:00,50.9,45.3,29.47,West,270,0.0,1.0,81,0.00,CLR,,0.00,WeatherDisplay:10.37,2013-03-23 21:45:00,
2013-03-23 22:50:00,50.5,45.2,29.46,West,270,1.0,2.0,82,0.00,CLR,,0.00,WeatherDisplay:10.37,2013-03-23 21:50:00,
2013-03-23 22:55:00,50.5,45.2,29.46,West,270,1.0,2.0,82,0.00,CLR,,0.00,WeatherDisplay:10.37,2013-03-23 21:55:00,
2013-03-23 23:00:00,50.5,45.2,29.46,West,270,1.0,2.0,82,0.00,CLR,,0.00,WeatherDisplay:10.37,2013-03-23 22:00:00,
2013-03-23 23:05:00,50.7,45.4,29.46,West,270,1.0,3.0,82,0.00,CLR,,0.00,WeatherDisplay:10.37,2013-03-23 22:05:00,
2013-03-23 23:10:00,50.7,45.4,29.46,West,270,1.0,3.0,82,0.00,CLR,,0.00,WeatherDisplay:10.37,2013-03-23 22:10:00,
2013-03-23 23:15:00,50.7,45.4,29.46,West,270,1.0,3.0,82,0.00,CLR,,0.00,WeatherDisplay:10.37,2013-03-23 22:15:00,
2013-03-23 23:20:00,51.1,45.8,29.46,West,270,0.0,3.0,82,0.00,CLR,,0.00,WeatherDisplay:10.37,2013-03-23 22:20:00,
2013-03-23 23:25:00,51.1,45.8,29.46,West,270,0.0,1.0,82,0.00,CLR,,0.00,WeatherDisplay:10.37,2013-03-23 22:25:00,
2013-03-23 23:30:00,51.1,45.8,29.46,West,270,0.0,1.0,82,0.00,CLR,,0.00,WeatherDisplay:10.37,2013-03-23 22:30:00,
2013-03-23 23:35:00,51.1,45.8,29.46,West,270,0.0,3.0,82,0.00,CLR,,0.00,WeatherDisplay:10.37,2013-03-23 22:35:00,
2013-03-23 23:40:00,51.1,45.8,29.46,West,270,0.0,3.0,82,0.00,CLR,,0.00,WeatherDisplay:10.37,2013-03-23 22:40:00,
2013-03-23 23:45:00,51.1,45.8,29.46,West,270,0.0,3.0,82,0.00,CLR,,0.00,WeatherDisplay:10.37,2013-03-23 22:45:00,
2013-03-23 23:50:00,51.1,45.8,29.46,West,276,0.0,3.0,82,0.00,CLR,,0.00,WeatherDisplay:10.37,2013-03-23 22:50:00,
2013-03-23 23:55:00,51.1,45.8,29.46,NW,326,0.0,2.0,82,0.00,CLR,,0.00,WeatherDisplay:10.37,2013-03-23 22:55:00,